sensor_id;sensor_type;location;lat;lon;timestamp;P1;durP1;ratioP1;P2;durP2;ratioP2
5630;SDS011;2837;50.990;7.124;2023-05-10T05:01:59;158.20;;;13.77;;
5630;SDS011;2837;50.990;7.124;2023-05-10T05:04:24;159.60;;;14.50;;
5630;SDS011;2837;50.990;7.124;2023-05-10T05:06:50;156.83;;;14.13;;
5630;SDS011;2837;50.990;7.124;2023-05-10T05:09:15;157.93;;;13.80;;
5630;SDS011;2837;50.990;7.124;2023-05-10T05:11:41;155.47;;;13.30;;
5630;SDS011;2837;50.990;7.124;2023-05-10T05:14:06;161.70;;;14.07;;
5630;SDS011;2837;50.990;7.124;2023-05-10T05:16:32;158.50;;;15.37;;
5630;SDS011;2837;50.990;7.124;2023-05-10T05:18:57;159.93;;;15.17;;
5630;SDS011;2837;50.990;7.124;2023-05-10T05:21:24;158.10;;;14.97;;
5630;SDS011;2837;50.990;7.124;2023-05-10T05:23:51;157.17;;;14.27;;
5630;SDS011;2837;50.990;7.124;2023-05-10T05:26:17;160.90;;;15.57;;
5630;SDS011;2837;50.990;7.124;2023-05-10T05:28:42;158.70;;;15.17;;
5630;SDS011;2837;50.990;7.124;2023-05-10T05:31:08;163.47;;;15.83;;
5630;SDS011;2837;50.990;7.124;2023-05-10T05:33:34;160.37;;;16.17;;
5630;SDS011;2837;50.990;7.124;2023-05-10T05:36:00;162.00;;;17.23;;
5630;SDS011;2837;50.990;7.124;2023-05-10T05:38:27;159.57;;;15.50;;
5630;SDS011;2837;50.990;7.124;2023-05-10T05:40:52;162.67;;;16.30;;
5630;SDS011;2837;50.990;7.124;2023-05-10T05:43:18;166.87;;;17.40;;
5630;SDS011;2837;50.990;7.124;2023-05-10T05:45:43;159.47;;;15.80;;
5630;SDS011;2837;50.990;7.124;2023-05-10T05:48:09;161.70;;;16.17;;
5630;SDS011;2837;50.990;7.124;2023-05-10T05:50:35;159.17;;;15.50;;
5630;SDS011;2837;50.990;7.124;2023-05-10T05:53:00;160.97;;;15.80;;
5630;SDS011;2837;50.990;7.124;2023-05-10T05:55:26;160.17;;;16.73;;
5630;SDS011;2837;50.990;7.124;2023-05-10T05:57:51;160.47;;;15.90;;
5630;SDS011;2837;50.990;7.124;2023-05-10T06:00:17;161.30;;;16.70;;
5630;SDS011;2837;50.990;7.124;2023-05-10T06:02:42;162.30;;;16.40;;
5630;SDS011;2837;50.990;7.124;2023-05-10T06:05:08;164.00;;;17.53;;
5630;SDS011;2837;50.990;7.124;2023-05-10T06:07:34;165.83;;;17.07;;
5630;SDS011;2837;50.990;7.124;2023-05-10T06:09:59;160.80;;;17.00;;
5630;SDS011;2837;50.990;7.124;2023-05-10T06:12:25;158.67;;;15.53;;
5630;SDS011;2837;50.990;7.124;2023-05-10T06:14:50;161.53;;;16.40;;
5630;SDS011;2837;50.990;7.124;2023-05-10T06:17:16;162.10;;;16.40;;
5630;SDS011;2837;50.990;7.124;2023-05-10T06:19:42;160.83;;;16.50;;
5630;SDS011;2837;50.990;7.124;2023-05-10T06:22:07;163.77;;;16.40;;
5630;SDS011;2837;50.990;7.124;2023-05-10T06:24:33;159.37;;;15.40;;
5630;SDS011;2837;50.990;7.124;2023-05-10T06:26:58;162.80;;;16.80;;
5630;SDS011;2837;50.990;7.124;2023-05-10T06:29:25;159.60;;;16.03;;
5630;SDS011;2837;50.990;7.124;2023-05-10T06:31:51;163.23;;;16.97;;
5630;SDS011;2837;50.990;7.124;2023-05-10T06:34:16;165.00;;;17.30;;
5630;SDS011;2837;50.990;7.124;2023-05-10T06:36:42;161.57;;;16.57;;
5630;SDS011;2837;50.990;7.124;2023-05-10T06:39:07;162.13;;;16.10;;
5630;SDS011;2837;50.990;7.124;2023-05-10T06:41:33;163.10;;;14.83;;
5630;SDS011;2837;50.990;7.124;2023-05-10T06:43:58;160.50;;;15.47;;
5630;SDS011;2837;50.990;7.124;2023-05-10T06:46:24;162.27;;;16.57;;
5630;SDS011;2837;50.990;7.124;2023-05-10T06:48:49;162.87;;;15.80;;
5630;SDS011;2837;50.990;7.124;2023-05-10T06:51:15;162.67;;;15.50;;
5630;SDS011;2837;50.990;7.124;2023-05-10T06:53:41;165.17;;;17.10;;
5630;SDS011;2837;50.990;7.124;2023-05-10T06:56:06;161.27;;;16.40;;
5630;SDS011;2837;50.990;7.124;2023-05-10T06:58:32;161.97;;;15.87;;
5630;SDS011;2837;50.990;7.124;2023-05-10T07:01:04;160.97;;;16.73;;
5630;SDS011;2837;50.990;7.124;2023-05-10T07:03:30;159.67;;;16.40;;
5630;SDS011;2837;50.990;7.124;2023-05-10T07:06:00;158.63;;;14.80;;
5630;SDS011;2837;50.990;7.124;2023-05-10T07:08:27;160.93;;;15.30;;
5630;SDS011;2837;50.990;7.124;2023-05-10T07:10:58;158.90;;;15.23;;
5630;SDS011;2837;50.990;7.124;2023-05-10T07:13:28;160.77;;;15.50;;
5630;SDS011;2837;50.990;7.124;2023-05-10T07:15:57;161.93;;;16.80;;
5630;SDS011;2837;50.990;7.124;2023-05-10T07:18:23;159.57;;;14.47;;
5630;SDS011;2837;50.990;7.124;2023-05-10T07:20:49;159.77;;;15.20;;
5630;SDS011;2837;50.990;7.124;2023-05-10T07:23:15;162.97;;;16.03;;
5630;SDS011;2837;50.990;7.124;2023-05-10T07:25:44;167.17;;;16.43;;
5630;SDS011;2837;50.990;7.124;2023-05-10T07:28:10;165.13;;;16.43;;
5630;SDS011;2837;50.990;7.124;2023-05-10T07:30:36;161.17;;;16.47;;
5630;SDS011;2837;50.990;7.124;2023-05-10T07:33:01;163.67;;;16.87;;
5630;SDS011;2837;50.990;7.124;2023-05-10T07:35:27;164.73;;;15.80;;
5630;SDS011;2837;50.990;7.124;2023-05-10T07:37:52;160.47;;;16.03;;
5630;SDS011;2837;50.990;7.124;2023-05-10T07:40:18;164.20;;;15.83;;
5630;SDS011;2837;50.990;7.124;2023-05-10T07:42:44;167.27;;;16.60;;
5630;SDS011;2837;50.990;7.124;2023-05-10T07:45:09;161.00;;;16.80;;
5630;SDS011;2837;50.990;7.124;2023-05-10T07:47:35;163.83;;;17.87;;
5630;SDS011;2837;50.990;7.124;2023-05-10T07:50:00;161.50;;;16.07;;
5630;SDS011;2837;50.990;7.124;2023-05-10T07:52:26;159.87;;;15.37;;
5630;SDS011;2837;50.990;7.124;2023-05-10T07:54:52;161.47;;;15.87;;
5630;SDS011;2837;50.990;7.124;2023-05-10T07:57:18;163.90;;;17.03;;
5630;SDS011;2837;50.990;7.124;2023-05-10T07:59:43;160.80;;;15.83;;
5630;SDS011;2837;50.990;7.124;2023-05-10T08:02:10;167.30;;;17.00;;
5630;SDS011;2837;50.990;7.124;2023-05-10T08:04:35;160.97;;;16.47;;
5630;SDS011;2837;50.990;7.124;2023-05-10T08:07:01;161.97;;;16.23;;
5630;SDS011;2837;50.990;7.124;2023-05-10T08:09:26;162.80;;;16.60;;
5630;SDS011;2837;50.990;7.124;2023-05-10T08:11:52;161.97;;;16.10;;
5630;SDS011;2837;50.990;7.124;2023-05-10T08:14:17;162.83;;;16.37;;
5630;SDS011;2837;50.990;7.124;2023-05-10T08:16:43;161.70;;;15.97;;
5630;SDS011;2837;50.990;7.124;2023-05-10T08:19:09;161.97;;;16.17;;
5630;SDS011;2837;50.990;7.124;2023-05-10T08:21:34;160.87;;;15.20;;
5630;SDS011;2837;50.990;7.124;2023-05-10T08:24:00;160.60;;;15.70;;
5630;SDS011;2837;50.990;7.124;2023-05-10T08:26:26;161.07;;;14.70;;
5630;SDS011;2837;50.990;7.124;2023-05-10T08:28:52;159.40;;;15.00;;
5630;SDS011;2837;50.990;7.124;2023-05-10T08:31:17;159.70;;;13.90;;
5630;SDS011;2837;50.990;7.124;2023-05-10T08:33:43;159.73;;;14.37;;
5630;SDS011;2837;50.990;7.124;2023-05-10T08:36:09;159.27;;;14.00;;
5630;SDS011;2837;50.990;7.124;2023-05-10T08:38:35;160.17;;;14.10;;
5630;SDS011;2837;50.990;7.124;2023-05-10T08:41:00;158.17;;;13.17;;
5630;SDS011;2837;50.990;7.124;2023-05-10T08:43:27;158.27;;;12.30;;
5630;SDS011;2837;50.990;7.124;2023-05-10T08:45:55;157.53;;;13.30;;
5630;SDS011;2837;50.990;7.124;2023-05-10T08:48:24;156.57;;;12.93;;
5630;SDS011;2837;50.990;7.124;2023-05-10T08:50:50;158.77;;;12.07;;
5630;SDS011;2837;50.990;7.124;2023-05-10T08:53:19;158.27;;;12.20;;
5630;SDS011;2837;50.990;7.124;2023-05-10T08:55:46;154.87;;;11.00;;
5630;SDS011;2837;50.990;7.124;2023-05-10T08:58:12;157.57;;;12.83;;
5630;SDS011;2837;50.990;7.124;2023-05-10T09:00:38;156.30;;;11.87;;
5630;SDS011;2837;50.990;7.124;2023-05-10T09:03:05;155.27;;;11.80;;
5630;SDS011;2837;50.990;7.124;2023-05-10T09:05:31;154.10;;;11.03;;
5630;SDS011;2837;50.990;7.124;2023-05-10T09:07:57;154.37;;;11.00;;
5630;SDS011;2837;50.990;7.124;2023-05-10T09:10:25;154.40;;;11.10;;
5630;SDS011;2837;50.990;7.124;2023-05-10T09:12:52;153.77;;;11.33;;
5630;SDS011;2837;50.990;7.124;2023-05-10T09:15:20;155.90;;;11.47;;
5630;SDS011;2837;50.990;7.124;2023-05-10T09:17:46;155.10;;;11.60;;
5630;SDS011;2837;50.990;7.124;2023-05-10T09:20:14;155.17;;;11.77;;
5630;SDS011;2837;50.990;7.124;2023-05-10T09:22:39;154.97;;;11.90;;
5630;SDS011;2837;50.990;7.124;2023-05-10T09:27:34;157.27;;;12.60;;
5630;SDS011;2837;50.990;7.124;2023-05-10T09:30:01;155.17;;;12.33;;
5630;SDS011;2837;50.990;7.124;2023-05-10T09:32:35;164.57;;;12.60;;
5630;SDS011;2837;50.990;7.124;2023-05-10T09:37:41;158.00;;;12.80;;
5630;SDS011;2837;50.990;7.124;2023-05-10T09:40:12;157.17;;;13.10;;
5630;SDS011;2837;50.990;7.124;2023-05-10T09:42:42;156.03;;;11.87;;
5630;SDS011;2837;50.990;7.124;2023-05-10T09:45:15;156.97;;;13.30;;
5630;SDS011;2837;50.990;7.124;2023-05-10T09:47:41;158.13;;;12.53;;
5630;SDS011;2837;50.990;7.124;2023-05-10T09:50:06;156.83;;;12.90;;
5630;SDS011;2837;50.990;7.124;2023-05-10T09:53:05;156.73;;;12.67;;
5630;SDS011;2837;50.990;7.124;2023-05-10T09:55:26;158.10;;;13.33;;
5630;SDS011;2837;50.990;7.124;2023-05-10T09:58:05;157.07;;;13.40;;
5630;SDS011;2837;50.990;7.124;2023-05-10T10:00:38;160.07;;;13.47;;
5630;SDS011;2837;50.990;7.124;2023-05-10T10:03:05;158.93;;;14.17;;
5630;SDS011;2837;50.990;7.124;2023-05-10T10:05:32;157.77;;;13.90;;
5630;SDS011;2837;50.990;7.124;2023-05-10T10:08:00;159.57;;;13.93;;
5630;SDS011;2837;50.990;7.124;2023-05-10T10:10:27;160.87;;;14.20;;
5630;SDS011;2837;50.990;7.124;2023-05-10T10:12:53;159.67;;;14.47;;
5630;SDS011;2837;50.990;7.124;2023-05-10T10:15:20;163.90;;;15.07;;
5630;SDS011;2837;50.990;7.124;2023-05-10T10:17:46;158.67;;;14.30;;
5630;SDS011;2837;50.990;7.124;2023-05-10T10:20:14;160.20;;;14.77;;
5630;SDS011;2837;50.990;7.124;2023-05-10T10:22:41;166.50;;;15.67;;
5630;SDS011;2837;50.990;7.124;2023-05-10T10:25:08;163.67;;;15.90;;
5630;SDS011;2837;50.990;7.124;2023-05-10T10:36:05;160.40;;;14.63;;
5630;SDS011;2837;50.990;7.124;2023-05-10T10:41:28;162.47;;;14.43;;
5630;SDS011;2837;50.990;7.124;2023-05-10T10:49:49;157.77;;;14.47;;
5630;SDS011;2837;50.990;7.124;2023-05-10T10:52:41;158.77;;;13.67;;
5630;SDS011;2837;50.990;7.124;2023-05-10T11:02:53;161.47;;;13.43;;
5630;SDS011;2837;50.990;7.124;2023-05-10T11:07:59;157.47;;;13.63;;
5630;SDS011;2837;50.990;7.124;2023-05-10T11:10:26;157.43;;;13.23;;
5630;SDS011;2837;50.990;7.124;2023-05-10T11:12:52;158.37;;;13.70;;
5630;SDS011;2837;50.990;7.124;2023-05-10T11:15:29;157.67;;;14.03;;
5630;SDS011;2837;50.990;7.124;2023-05-10T11:17:56;155.60;;;12.47;;
5630;SDS011;2837;50.990;7.124;2023-05-10T11:20:21;159.17;;;14.57;;
5630;SDS011;2837;50.990;7.124;2023-05-10T11:22:53;158.00;;;13.00;;
5630;SDS011;2837;50.990;7.124;2023-05-10T11:25:20;156.67;;;13.03;;
5630;SDS011;2837;50.990;7.124;2023-05-10T11:27:51;157.10;;;14.00;;
5630;SDS011;2837;50.990;7.124;2023-05-10T11:30:17;159.47;;;15.37;;
5630;SDS011;2837;50.990;7.124;2023-05-10T11:32:42;158.27;;;15.37;;
5630;SDS011;2837;50.990;7.124;2023-05-10T11:35:09;160.80;;;15.80;;
5630;SDS011;2837;50.990;7.124;2023-05-10T11:37:36;159.57;;;15.20;;
5630;SDS011;2837;50.990;7.124;2023-05-10T11:40:06;159.07;;;15.00;;
5630;SDS011;2837;50.990;7.124;2023-05-10T11:42:34;160.97;;;15.00;;
5630;SDS011;2837;50.990;7.124;2023-05-10T11:45:02;157.43;;;14.27;;
5630;SDS011;2837;50.990;7.124;2023-05-10T11:47:28;157.77;;;14.10;;
5630;SDS011;2837;50.990;7.124;2023-05-10T11:49:53;157.40;;;13.13;;
5630;SDS011;2837;50.990;7.124;2023-05-10T11:52:19;156.77;;;12.77;;
5630;SDS011;2837;50.990;7.124;2023-05-10T11:54:54;158.77;;;13.30;;
5630;SDS011;2837;50.990;7.124;2023-05-10T11:57:20;157.30;;;13.83;;
5630;SDS011;2837;50.990;7.124;2023-05-10T11:59:53;156.60;;;13.10;;
5630;SDS011;2837;50.990;7.124;2023-05-10T12:02:22;157.53;;;12.90;;
5630;SDS011;2837;50.990;7.124;2023-05-10T12:04:48;154.37;;;11.30;;
5630;SDS011;2837;50.990;7.124;2023-05-10T12:07:14;155.67;;;12.83;;
5630;SDS011;2837;50.990;7.124;2023-05-10T12:09:44;154.00;;;12.50;;
5630;SDS011;2837;50.990;7.124;2023-05-10T12:12:10;158.07;;;12.37;;
5630;SDS011;2837;50.990;7.124;2023-05-10T12:14:40;153.97;;;12.00;;
5630;SDS011;2837;50.990;7.124;2023-05-10T12:17:06;155.87;;;13.20;;
5630;SDS011;2837;50.990;7.124;2023-05-10T12:19:39;157.30;;;12.57;;
5630;SDS011;2837;50.990;7.124;2023-05-10T12:22:06;153.77;;;12.10;;
5630;SDS011;2837;50.990;7.124;2023-05-10T12:24:33;155.03;;;12.50;;
5630;SDS011;2837;50.990;7.124;2023-05-10T12:27:04;152.87;;;11.87;;
5630;SDS011;2837;50.990;7.124;2023-05-10T12:29:30;153.60;;;12.20;;
5630;SDS011;2837;50.990;7.124;2023-05-10T12:31:56;152.30;;;12.00;;
5630;SDS011;2837;50.990;7.124;2023-05-10T12:36:56;152.87;;;12.43;;
5630;SDS011;2837;50.990;7.124;2023-05-10T12:39:21;152.00;;;11.03;;
5630;SDS011;2837;50.990;7.124;2023-05-10T12:41:48;150.50;;;11.30;;
5630;SDS011;2837;50.990;7.124;2023-05-10T12:44:13;152.07;;;11.57;;
5630;SDS011;2837;50.990;7.124;2023-05-10T12:46:39;151.50;;;11.17;;
5630;SDS011;2837;50.990;7.124;2023-05-10T12:49:04;150.20;;;10.03;;
5630;SDS011;2837;50.990;7.124;2023-05-10T12:51:30;151.97;;;10.93;;
5630;SDS011;2837;50.990;7.124;2023-05-10T12:53:56;151.07;;;10.97;;
5630;SDS011;2837;50.990;7.124;2023-05-10T12:56:21;151.17;;;11.00;;
5630;SDS011;2837;50.990;7.124;2023-05-10T12:58:47;150.80;;;11.20;;
5630;SDS011;2837;50.990;7.124;2023-05-10T13:01:13;151.10;;;10.90;;
5630;SDS011;2837;50.990;7.124;2023-05-10T13:03:39;150.27;;;10.57;;
5630;SDS011;2837;50.990;7.124;2023-05-10T13:06:05;150.20;;;11.23;;
5630;SDS011;2837;50.990;7.124;2023-05-10T13:08:31;153.40;;;11.20;;
5630;SDS011;2837;50.990;7.124;2023-05-10T13:10:58;151.20;;;11.27;;
5630;SDS011;2837;50.990;7.124;2023-05-10T13:13:27;150.70;;;10.67;;
5630;SDS011;2837;50.990;7.124;2023-05-10T13:15:53;152.60;;;10.73;;
5630;SDS011;2837;50.990;7.124;2023-05-10T13:18:18;150.57;;;11.50;;
5630;SDS011;2837;50.990;7.124;2023-05-10T13:20:44;151.10;;;11.43;;
5630;SDS011;2837;50.990;7.124;2023-05-10T13:23:10;150.77;;;10.50;;
5630;SDS011;2837;50.990;7.124;2023-05-10T13:25:35;149.83;;;11.00;;
5630;SDS011;2837;50.990;7.124;2023-05-10T13:28:01;150.97;;;11.90;;
5630;SDS011;2837;50.990;7.124;2023-05-10T13:30:27;149.23;;;10.37;;
5630;SDS011;2837;50.990;7.124;2023-05-10T13:32:53;151.57;;;11.43;;
5630;SDS011;2837;50.990;7.124;2023-05-10T13:35:19;152.20;;;12.10;;
5630;SDS011;2837;50.990;7.124;2023-05-10T13:37:45;151.63;;;11.77;;
5630;SDS011;2837;50.990;7.124;2023-05-10T13:40:10;149.77;;;11.00;;
5630;SDS011;2837;50.990;7.124;2023-05-10T13:42:36;150.07;;;10.50;;
5630;SDS011;2837;50.990;7.124;2023-05-10T13:45:02;151.57;;;11.13;;
5630;SDS011;2837;50.990;7.124;2023-05-10T13:47:28;150.37;;;10.63;;
5630;SDS011;2837;50.990;7.124;2023-05-10T13:49:54;149.17;;;9.90;;
5630;SDS011;2837;50.990;7.124;2023-05-10T13:52:19;150.70;;;11.80;;
5630;SDS011;2837;50.990;7.124;2023-05-10T13:54:45;150.27;;;11.27;;
5630;SDS011;2837;50.990;7.124;2023-05-10T13:57:11;149.37;;;10.50;;
5630;SDS011;2837;50.990;7.124;2023-05-10T13:59:38;149.57;;;10.53;;
5630;SDS011;2837;50.990;7.124;2023-05-10T14:02:04;150.07;;;11.17;;
5630;SDS011;2837;50.990;7.124;2023-05-10T14:04:30;149.17;;;10.23;;
5630;SDS011;2837;50.990;7.124;2023-05-10T14:06:56;149.90;;;11.30;;
5630;SDS011;2837;50.990;7.124;2023-05-10T14:09:22;150.27;;;11.23;;
5630;SDS011;2837;50.990;7.124;2023-05-10T14:11:47;150.67;;;10.23;;
5630;SDS011;2837;50.990;7.124;2023-05-10T14:14:13;149.83;;;10.37;;
5630;SDS011;2837;50.990;7.124;2023-05-10T14:16:42;149.80;;;10.40;;
5630;SDS011;2837;50.990;7.124;2023-05-10T14:19:09;150.10;;;10.83;;
5630;SDS011;2837;50.990;7.124;2023-05-10T14:21:34;150.23;;;11.30;;
5630;SDS011;2837;50.990;7.124;2023-05-10T14:24:00;149.60;;;10.37;;
5630;SDS011;2837;50.990;7.124;2023-05-10T14:26:25;149.77;;;10.37;;
5630;SDS011;2837;50.990;7.124;2023-05-10T14:28:52;148.57;;;9.43;;
5630;SDS011;2837;50.990;7.124;2023-05-10T14:31:17;149.87;;;10.93;;
5630;SDS011;2837;50.990;7.124;2023-05-10T14:33:45;149.70;;;10.53;;
5630;SDS011;2837;50.990;7.124;2023-05-10T14:36:11;150.37;;;10.77;;
5630;SDS011;2837;50.990;7.124;2023-05-10T14:38:37;150.57;;;11.13;;
5630;SDS011;2837;50.990;7.124;2023-05-10T14:41:03;151.87;;;12.43;;
5630;SDS011;2837;50.990;7.124;2023-05-10T14:43:28;152.63;;;12.10;;
5630;SDS011;2837;50.990;7.124;2023-05-10T14:45:55;154.43;;;12.70;;
5630;SDS011;2837;50.990;7.124;2023-05-10T14:48:20;152.67;;;12.67;;
5630;SDS011;2837;50.990;7.124;2023-05-10T14:50:46;152.37;;;12.43;;
5630;SDS011;2837;50.990;7.124;2023-05-10T14:53:11;155.40;;;13.57;;
5630;SDS011;2837;50.990;7.124;2023-05-10T14:55:37;156.57;;;14.70;;
5630;SDS011;2837;50.990;7.124;2023-05-10T14:58:04;154.37;;;13.67;;
5630;SDS011;2837;50.990;7.124;2023-05-10T15:00:30;155.10;;;13.10;;
5630;SDS011;2837;50.990;7.124;2023-05-10T15:02:56;155.27;;;13.40;;
5630;SDS011;2837;50.990;7.124;2023-05-10T15:05:22;154.00;;;13.20;;
5630;SDS011;2837;50.990;7.124;2023-05-10T15:07:48;155.30;;;13.17;;
5630;SDS011;2837;50.990;7.124;2023-05-10T15:10:14;153.73;;;12.00;;
5630;SDS011;2837;50.990;7.124;2023-05-10T15:12:39;159.27;;;14.20;;
5630;SDS011;2837;50.990;7.124;2023-05-10T15:15:05;153.53;;;12.47;;
5630;SDS011;2837;50.990;7.124;2023-05-10T15:17:32;153.27;;;12.97;;
5630;SDS011;2837;50.990;7.124;2023-05-10T15:19:58;152.97;;;12.33;;
5630;SDS011;2837;50.990;7.124;2023-05-10T15:22:23;153.50;;;13.17;;
5630;SDS011;2837;50.990;7.124;2023-05-10T15:24:49;153.77;;;12.70;;
5630;SDS011;2837;50.990;7.124;2023-05-10T15:27:15;153.80;;;12.83;;
5630;SDS011;2837;50.990;7.124;2023-05-10T15:29:40;153.57;;;13.10;;
5630;SDS011;2837;50.990;7.124;2023-05-10T15:32:06;179.20;;;13.60;;
5630;SDS011;2837;50.990;7.124;2023-05-10T15:34:32;156.23;;;14.80;;
5630;SDS011;2837;50.990;7.124;2023-05-10T15:36:57;155.43;;;13.27;;
5630;SDS011;2837;50.990;7.124;2023-05-10T15:39:23;155.27;;;13.67;;
5630;SDS011;2837;50.990;7.124;2023-05-10T15:41:49;156.93;;;12.90;;
5630;SDS011;2837;50.990;7.124;2023-05-10T15:44:14;154.67;;;12.97;;
5630;SDS011;2837;50.990;7.124;2023-05-10T15:46:40;156.97;;;13.90;;
5630;SDS011;2837;50.990;7.124;2023-05-10T15:49:05;154.03;;;13.13;;
5630;SDS011;2837;50.990;7.124;2023-05-10T15:51:31;158.40;;;14.53;;
5630;SDS011;2837;50.990;7.124;2023-05-10T15:53:57;157.60;;;15.13;;
5630;SDS011;2837;50.990;7.124;2023-05-10T15:56:23;155.50;;;13.17;;
5630;SDS011;2837;50.990;7.124;2023-05-10T15:58:49;155.40;;;12.80;;
5630;SDS011;2837;50.990;7.124;2023-05-10T16:01:15;158.27;;;12.90;;
5630;SDS011;2837;50.990;7.124;2023-05-10T16:03:40;155.73;;;12.17;;
5630;SDS011;2837;50.990;7.124;2023-05-10T16:06:07;154.00;;;11.70;;
5630;SDS011;2837;50.990;7.124;2023-05-10T16:08:32;155.47;;;12.70;;
5630;SDS011;2837;50.990;7.124;2023-05-10T16:10:58;155.63;;;11.87;;
5630;SDS011;2837;50.990;7.124;2023-05-10T16:13:24;156.37;;;13.27;;
5630;SDS011;2837;50.990;7.124;2023-05-10T16:15:50;157.77;;;14.17;;
5630;SDS011;2837;50.990;7.124;2023-05-10T16:18:16;156.37;;;14.00;;
5630;SDS011;2837;50.990;7.124;2023-05-10T16:20:42;160.43;;;16.63;;
5630;SDS011;2837;50.990;7.124;2023-05-10T16:23:08;159.53;;;16.70;;
5630;SDS011;2837;50.990;7.124;2023-05-10T16:25:34;157.60;;;14.27;;
5630;SDS011;2837;50.990;7.124;2023-05-10T16:28:00;157.70;;;14.27;;
5630;SDS011;2837;50.990;7.124;2023-05-10T16:30:25;157.30;;;12.80;;
5630;SDS011;2837;50.990;7.124;2023-05-10T16:32:54;155.97;;;12.87;;
5630;SDS011;2837;50.990;7.124;2023-05-10T16:35:22;156.87;;;14.07;;
5630;SDS011;2837;50.990;7.124;2023-05-10T16:37:51;157.10;;;14.00;;
5630;SDS011;2837;50.990;7.124;2023-05-10T16:40:17;157.87;;;12.90;;
5630;SDS011;2837;50.990;7.124;2023-05-10T16:42:43;157.27;;;13.33;;
5630;SDS011;2837;50.990;7.124;2023-05-10T16:45:09;157.63;;;12.50;;
5630;SDS011;2837;50.990;7.124;2023-05-10T16:47:35;166.80;;;13.40;;
5630;SDS011;2837;50.990;7.124;2023-05-10T16:50:02;157.67;;;14.23;;
5630;SDS011;2837;50.990;7.124;2023-05-10T16:52:30;159.10;;;14.83;;
5630;SDS011;2837;50.990;7.124;2023-05-10T16:54:56;157.37;;;13.53;;
5630;SDS011;2837;50.990;7.124;2023-05-10T16:57:22;160.50;;;13.60;;
5630;SDS011;2837;50.990;7.124;2023-05-10T16:59:48;156.60;;;12.57;;
5630;SDS011;2837;50.990;7.124;2023-05-10T17:02:13;158.40;;;13.63;;
5630;SDS011;2837;50.990;7.124;2023-05-10T17:04:39;159.13;;;12.00;;
5630;SDS011;2837;50.990;7.124;2023-05-10T17:07:06;156.80;;;13.83;;
5630;SDS011;2837;50.990;7.124;2023-05-10T17:09:32;156.47;;;13.00;;
5630;SDS011;2837;50.990;7.124;2023-05-10T17:11:58;156.37;;;12.27;;
5630;SDS011;2837;50.990;7.124;2023-05-10T17:14:24;154.40;;;11.73;;
5630;SDS011;2837;50.990;7.124;2023-05-10T17:16:49;155.53;;;11.80;;
5630;SDS011;2837;50.990;7.124;2023-05-10T17:19:16;154.63;;;11.77;;
5630;SDS011;2837;50.990;7.124;2023-05-10T17:21:42;154.97;;;12.13;;
5630;SDS011;2837;50.990;7.124;2023-05-10T17:24:08;156.07;;;11.70;;
5630;SDS011;2837;50.990;7.124;2023-05-10T17:26:33;156.47;;;13.03;;
5630;SDS011;2837;50.990;7.124;2023-05-10T17:28:59;156.57;;;12.03;;
5630;SDS011;2837;50.990;7.124;2023-05-10T17:31:24;155.47;;;12.20;;
5630;SDS011;2837;50.990;7.124;2023-05-10T17:33:50;155.03;;;12.50;;
5630;SDS011;2837;50.990;7.124;2023-05-10T17:36:16;156.97;;;13.37;;
5630;SDS011;2837;50.990;7.124;2023-05-10T17:38:41;157.27;;;13.00;;
5630;SDS011;2837;50.990;7.124;2023-05-10T17:41:07;156.67;;;12.30;;
5630;SDS011;2837;50.990;7.124;2023-05-10T17:43:33;155.37;;;11.97;;
5630;SDS011;2837;50.990;7.124;2023-05-10T17:45:58;154.67;;;11.67;;
5630;SDS011;2837;50.990;7.124;2023-05-10T17:48:24;155.97;;;11.10;;
5630;SDS011;2837;50.990;7.124;2023-05-10T17:50:49;154.40;;;11.87;;
5630;SDS011;2837;50.990;7.124;2023-05-10T17:53:15;154.97;;;11.67;;
5630;SDS011;2837;50.990;7.124;2023-05-10T17:55:41;154.77;;;12.27;;
5630;SDS011;2837;50.990;7.124;2023-05-10T17:58:09;156.00;;;11.63;;
5630;SDS011;2837;50.990;7.124;2023-05-10T18:00:35;156.40;;;11.20;;
5630;SDS011;2837;50.990;7.124;2023-05-10T18:03:02;154.83;;;12.23;;
5630;SDS011;2837;50.990;7.124;2023-05-10T18:05:28;156.50;;;12.10;;
5630;SDS011;2837;50.990;7.124;2023-05-10T18:07:54;154.57;;;11.60;;
5630;SDS011;2837;50.990;7.124;2023-05-10T18:10:20;155.57;;;12.67;;
5630;SDS011;2837;50.990;7.124;2023-05-10T18:12:46;155.37;;;11.77;;
5630;SDS011;2837;50.990;7.124;2023-05-10T18:15:11;158.07;;;12.20;;
5630;SDS011;2837;50.990;7.124;2023-05-10T18:17:37;153.67;;;11.23;;
5630;SDS011;2837;50.990;7.124;2023-05-10T18:20:03;152.63;;;10.30;;
5630;SDS011;2837;50.990;7.124;2023-05-10T18:22:30;154.47;;;11.40;;
5630;SDS011;2837;50.990;7.124;2023-05-10T18:24:55;156.50;;;10.67;;
5630;SDS011;2837;50.990;7.124;2023-05-10T18:27:22;154.40;;;11.67;;
5630;SDS011;2837;50.990;7.124;2023-05-10T18:29:47;153.67;;;11.67;;
5630;SDS011;2837;50.990;7.124;2023-05-10T18:32:13;155.37;;;11.70;;
5630;SDS011;2837;50.990;7.124;2023-05-10T18:34:38;153.40;;;10.43;;
5630;SDS011;2837;50.990;7.124;2023-05-10T18:37:04;153.27;;;10.93;;
5630;SDS011;2837;50.990;7.124;2023-05-10T18:39:31;153.90;;;11.83;;
5630;SDS011;2837;50.990;7.124;2023-05-10T18:41:57;154.67;;;11.40;;
5630;SDS011;2837;50.990;7.124;2023-05-10T18:44:23;153.87;;;11.47;;
5630;SDS011;2837;50.990;7.124;2023-05-10T18:46:50;153.03;;;10.90;;
5630;SDS011;2837;50.990;7.124;2023-05-10T18:49:18;154.30;;;11.20;;
5630;SDS011;2837;50.990;7.124;2023-05-10T18:51:44;153.37;;;11.53;;
5630;SDS011;2837;50.990;7.124;2023-05-10T18:54:10;154.50;;;11.53;;
5630;SDS011;2837;50.990;7.124;2023-05-10T18:56:35;153.10;;;10.80;;
5630;SDS011;2837;50.990;7.124;2023-05-10T18:59:01;156.20;;;12.43;;
5630;SDS011;2837;50.990;7.124;2023-05-10T19:01:27;155.60;;;11.83;;
5630;SDS011;2837;50.990;7.124;2023-05-10T19:03:52;155.33;;;11.80;;
5630;SDS011;2837;50.990;7.124;2023-05-10T19:06:18;155.83;;;12.13;;
5630;SDS011;2837;50.990;7.124;2023-05-10T19:08:44;154.93;;;12.13;;
5630;SDS011;2837;50.990;7.124;2023-05-10T19:11:09;154.97;;;12.60;;
5630;SDS011;2837;50.990;7.124;2023-05-10T19:13:35;154.93;;;12.77;;
5630;SDS011;2837;50.990;7.124;2023-05-10T19:16:04;154.43;;;11.43;;
5630;SDS011;2837;50.990;7.124;2023-05-10T19:18:34;155.17;;;13.10;;
5630;SDS011;2837;50.990;7.124;2023-05-10T19:20:59;153.07;;;11.30;;
5630;SDS011;2837;50.990;7.124;2023-05-10T19:23:28;154.67;;;11.70;;
5630;SDS011;2837;50.990;7.124;2023-05-10T19:25:55;156.17;;;13.07;;
5630;SDS011;2837;50.990;7.124;2023-05-10T19:28:21;156.17;;;12.67;;
5630;SDS011;2837;50.990;7.124;2023-05-10T19:30:46;156.07;;;13.30;;
5630;SDS011;2837;50.990;7.124;2023-05-10T19:33:14;158.10;;;12.97;;
5630;SDS011;2837;50.990;7.124;2023-05-10T19:35:41;156.40;;;13.27;;
5630;SDS011;2837;50.990;7.124;2023-05-10T19:38:06;156.03;;;12.60;;
5630;SDS011;2837;50.990;7.124;2023-05-10T19:40:32;156.27;;;12.90;;
5630;SDS011;2837;50.990;7.124;2023-05-10T19:42:57;154.77;;;11.53;;
5630;SDS011;2837;50.990;7.124;2023-05-10T19:45:24;154.50;;;11.77;;
5630;SDS011;2837;50.990;7.124;2023-05-10T19:47:50;157.00;;;13.37;;
5630;SDS011;2837;50.990;7.124;2023-05-10T19:50:16;155.93;;;12.57;;
5630;SDS011;2837;50.990;7.124;2023-05-10T19:52:42;155.77;;;12.90;;
5630;SDS011;2837;50.990;7.124;2023-05-10T19:55:08;155.40;;;12.67;;
5630;SDS011;2837;50.990;7.124;2023-05-10T19:57:35;156.60;;;12.77;;
5630;SDS011;2837;50.990;7.124;2023-05-10T20:00:01;155.97;;;12.50;;
5630;SDS011;2837;50.990;7.124;2023-05-10T20:02:28;156.77;;;13.13;;
5630;SDS011;2837;50.990;7.124;2023-05-10T20:04:53;157.37;;;13.70;;
5630;SDS011;2837;50.990;7.124;2023-05-10T20:07:19;156.00;;;12.80;;